Latest Weather Observations for Fowlers Gap

IDN60801

Issued at 7:52 am EDT Saturday 14 December 2019 (issued every 10 minutes, with the page automatically refreshed every 10 minutes)

About weather observations | Map of weather stations | Latest weather observations for NSW | Other Formats
Station Details ID: 046128 Name: FOWLERS GAP AWS Lat: -31.09 Lon: 141.70 Height: 181.0 m
Data from the previous 72 hours. | See also: Recent months at Fowlers Gap
Date/Time
EDT
Temp
°C
App
Temp
°C
Dew
Point
°C
Rel
Hum
%
Delta-T
°C
Wind Press
QNH
hPa
Press
MSL
hPa
Rain since
9am
mm
Dir  Spd
km/h
Gust
km/h
Spd
kts
Gust
kts
14/07:30am 19.1 13.8 6.6 44 6.3 SSE 24 35 13 19 1016.6 1015.6 0.0
14/07:00am 18.6 13.5 6.1 44 6.2 SSE 22 28 12 15 1016.3 1015.3 0.0
14/06:30am 18.6 14.1 6.1 44 6.2 SSE 19 24 10 13 1016.3 1015.3 0.0
14/06:00am 19.0 13.5 5.8 42 6.5 SSE 24 33 13 18 1015.8 1014.7 0.0
14/05:30am 19.4 14.1 5.1 39 7.0 SSE 22 30 12 16 1015.6 1014.5 0.0
14/05:00am 19.6 14.6 3.7 35 7.6 S 19 26 10 14 1015.5 1014.4 0.0
14/04:30am 20.1 14.0 2.9 32 8.1 S 24 30 13 16 1015.3 1014.2 0.0
14/04:00am 20.3 15.4 1.7 29 8.6 S 17 22 9 12 1015.3 1014.2 0.0
14/03:30am 19.6 15.7 1.1 29 8.4 S 11 15 6 8 1015.3 1014.2 0.0
14/03:00am 19.0 15.3 0.1 28 8.4 S 9 11 5 6 1015.5 1014.4 0.0
14/02:30am 19.3 17.2 -0.7 26 8.7 CALM 0 0 0 0 1015.7 1014.6 0.0
14/02:00am 19.5 15.4 -0.5 26 8.8 S 11 11 6 6 1015.9 1014.8 0.0
14/01:30am 20.1 15.9 -1.1 24 9.3 S 11 13 6 7 1016.2 1015.2 0.0
14/01:00am 20.9 17.5 -0.4 24 9.5 S 7 9 4 5 1016.5 1015.5 0.0
14/12:30am 21.6 17.0 -1.0 22 10.0 SSE 13 13 7 7 1016.5 1015.5 0.0
14/12:00am 22.2 17.6 -1.1 21 10.3 SSE 13 15 7 8 1016.6 1015.6 0.0
 
Date/Time
EDT
Temp
°C
App
Temp
°C
Dew
Point
°C
Rel
Hum
%
Delta-T
°C
Wind Press
QNH
hPa
Press
MSL
hPa
Rain since
9am
mm
Dir  Spd
km/h
Gust
km/h
Spd
kts
Gust
kts
13/11:30pm 23.2 19.0 -1.0 20 10.9 SSE 11 13 6 7 1016.6 1015.6 0.0
13/11:00pm 24.0 19.0 -1.0 19 11.3 SSE 15 24 8 13 1016.5 1015.5 0.0
13/10:30pm 24.7 18.9 -1.2 18 11.7 SSE 19 22 10 12 1016.2 1015.2 0.0
13/10:00pm 25.2 19.4 -1.6 17 12.1 SSE 19 24 10 13 1016.0 1014.9 0.0
13/09:30pm 25.8 19.5 -1.1 17 12.3 SSE 22 28 12 15 1015.7 1014.6 0.0
13/09:00pm 26.5 20.2 -1.3 16 12.7 SSE 22 28 12 15 1015.4 1014.3 0.0
13/08:30pm 27.2 20.8 -1.7 15 13.2 SSE 22 30 12 16 1014.9 1013.9 0.0
13/08:00pm 28.1 22.1 -1.9 14 13.8 SSE 20 26 11 14 1014.6 1013.6 0.0
13/07:30pm 29.2 23.0 -3.1 12 14.6 SSE 20 28 11 15 1014.4 1013.4 0.0
13/07:00pm 29.1 21.8 -3.2 12 14.6 SSE 26 33 14 18 1014.2 1013.2 0.0
13/06:30pm 29.0 22.4 -3.2 12 14.6 SSE 22 35 12 19 1014.2 1013.2 0.0
13/06:00pm 29.1 22.3 -2.1 13 14.4 S 24 35 13 19 1014.3 1013.3 0.0
13/05:30pm 29.6 23.6 -1.7 13 14.6 S 20 32 11 17 1014.3 1013.3 0.0
13/05:00pm 29.3 22.5 -1.9 13 14.5 SSW 24 39 13 21 1014.8 1013.8 0.0
13/04:30pm 29.6 23.6 -1.7 13 14.6 SSW 20 32 11 17 1015.1 1014.0 0.0
13/04:00pm 28.9 22.9 -1.2 14 14.1 S 20 35 11 19 1015.4 1014.3 0.0
13/03:30pm 28.7 23.0 -0.5 15 13.8 S 19 35 10 19 1015.6 1014.5 0.0
13/03:00pm 28.0 21.9 -2.0 14 13.7 SSE 20 35 11 19 1016.1 1015.1 0.0
13/02:30pm 27.8 22.0 -0.3 16 13.2 S 20 30 11 16 1016.4 1015.4 0.0
13/02:00pm 26.6 21.4 0.4 18 12.4 SSE 17 28 9 15 1017.0 1016.0 0.0
13/01:30pm 25.6 20.0 1.0 20 11.7 SSE 20 33 11 18 1017.4 1016.4 0.0
13/01:00pm 25.6 20.1 1.7 21 11.5 S 20 28 11 15 1017.8 1016.8 0.0
13/12:30pm 25.3 19.8 3.9 25 10.7 SSE 22 32 12 17 1018.0 1017.0 0.0
13/12:00pm 25.0 19.5 4.2 26 10.4 SSE 22 35 12 19 1018.0 1017.0 0.0
13/11:30am 24.6 19.3 4.9 28 10.0 SE 22 32 12 17 1018.3 1017.3 0.0
13/11:00am 22.7 17.3 4.7 31 9.0 SSE 22 33 12 18 1018.5 1017.5 0.0
13/10:30am 22.1 16.4 4.7 32 8.6 SE 24 32 13 17 1018.7 1017.7 0.0
13/10:00am 21.6 15.5 4.7 33 8.3 SE 26 35 14 19 1018.8 1017.8 0.0
13/09:30am 20.0 13.2 4.9 37 7.4 SSE 30 37 16 20 1019.0 1018.0 0.0
13/09:00am 19.2 13.2 5.3 40 6.8 SSE 26 37 14 20 1019.0 1018.0 0.0
13/08:30am 17.9 11.9 5.2 43 6.2 SSE 26 37 14 20 1018.6 1017.6 0.0
13/08:00am 17.5 11.1 5.1 44 6.0 SSE 28 37 15 20 1018.3 1017.3 0.0
13/07:30am 17.0 10.6 5.3 46 5.7 SSE 28 35 15 19 1018.0 1017.0 0.0
13/07:00am 16.6 9.8 5.3 47 5.4 SSE 30 41 16 22 1017.6 1016.6 0.0
13/06:30am 16.8 9.6 5.1 46 5.6 SSE 32 43 17 23 1017.4 1016.4 0.0
13/06:00am 17.5 10.1 4.8 43 6.1 SSE 33 43 18 23 1017.2 1016.2 0.0
13/05:30am 18.0 10.5 4.6 41 6.4 SSE 33 44 18 24 1016.8 1015.8 0.0
13/05:00am 18.6 11.2 4.0 38 7.0 SSE 32 39 17 21 1016.9 1015.9 0.0
13/04:30am 19.1 12.0 3.7 36 7.3 S 30 35 16 19 1017.0 1016.0 0.0
13/04:00am 20.0 13.2 3.3 33 7.9 S 28 41 15 22 1017.0 1016.0 0.0
13/03:30am 20.7 14.7 3.4 32 8.3 S 24 30 13 16 1017.0 1016.0 0.0
13/03:00am 21.4 15.7 3.1 30 8.8 S 22 30 12 16 1017.2 1016.2 0.0
13/02:30am 22.0 16.3 2.7 28 9.2 S 22 26 12 14 1017.4 1016.4 0.0
13/02:00am 22.4 16.1 1.4 25 9.8 S 24 32 13 17 1017.4 1016.4 0.0
13/01:30am 23.0 17.0 0.8 23 10.3 S 22 30 12 16 1017.7 1016.7 0.0
13/01:00am 22.3 18.5 -0.4 22 10.2 S 9 13 5 7 1018.0 1017.0 0.0
13/12:30am 22.4 18.9 -1.0 21 10.4 SW 7 9 4 5 1018.1 1017.1 0.0
13/12:00am 23.1 19.0 -0.4 21 10.6 S 11 15 6 8 1018.1 1017.1 0.0
 
Date/Time
EDT
Temp
°C
App
Temp
°C
Dew
Point
°C
Rel
Hum
%
Delta-T
°C
Wind Press
QNH
hPa
Press
MSL
hPa
Rain since
9am
mm
Dir  Spd
km/h
Gust
km/h
Spd
kts
Gust
kts
12/11:30pm 23.5 18.9 -0.7 20 11.0 S 13 17 7 9 1017.9 1016.9 0.0
12/11:00pm 24.2 18.5 -0.9 19 11.4 SSE 19 24 10 13 1017.8 1016.8 0.0
12/10:30pm 24.5 19.3 0.1 20 11.3 SSE 17 24 9 13 1017.4 1016.4 0.0
12/10:00pm 24.8 19.1 -0.4 19 11.6 SSE 19 22 10 12 1017.1 1016.1 0.0
12/09:30pm 25.5 19.1 0.9 20 11.7 SSE 24 32 13 17 1016.8 1015.8 0.0
12/09:00pm 25.7 20.2 1.8 21 11.5 SSE 20 28 11 15 1016.5 1015.5 0.0
12/08:30pm 26.0 19.8 2.0 21 11.6 SSE 24 33 13 18 1016.2 1015.2 0.0
12/08:00pm 26.5 19.6 2.4 21 11.8 SSE 28 39 15 21 1016.0 1014.9 0.0
12/07:30pm 27.2 21.0 2.3 20 12.2 SSE 24 33 13 18 1015.7 1014.6 0.0
12/07:00pm 27.8 21.2 2.1 19 12.6 S 26 35 14 19 1015.6 1014.5 0.0
12/06:30pm 27.9 21.8 2.9 20 12.5 S 24 33 13 18 1015.8 1014.7 0.0
12/06:00pm 28.4 22.1 4.0 21 12.4 S 26 35 14 19 1015.9 1014.8 0.0
12/05:30pm 28.5 23.7 4.7 22 12.3 S 19 33 10 18 1016.0 1014.9 0.0
12/05:00pm 28.1 23.1 4.4 22 12.2 S 20 28 11 15 1016.2 1015.2 0.0
12/04:30pm 28.2 23.2 4.5 22 12.2 S 20 32 11 17 1016.3 1015.3 0.0
12/04:00pm 29.1 23.7 4.6 21 12.7 SSW 22 32 12 17 1016.3 1015.3 0.0
12/03:30pm 28.0 22.7 5.0 23 11.9 SSW 22 35 12 19 1016.5 1015.5 0.0
12/03:00pm 28.2 22.4 4.5 22 12.2 S 24 33 13 18 1016.5 1015.5 0.0
12/02:30pm 28.3 22.5 4.6 22 12.2 SSW 24 32 13 17 1016.6 1015.6 0.0
12/02:00pm 28.7 22.6 4.9 22 12.4 SSE 26 33 14 18 1016.3 1015.3 0.0
12/01:30pm 27.8 22.0 4.2 22 12.0 SSE 24 33 13 18 1016.7 1015.7 0.0
12/01:00pm 28.9 22.5 5.1 22 12.4 S 28 37 15 20 1017.1 1016.1 0.0
12/12:30pm 28.4 21.6 5.3 23 12.1 SSE 30 44 16 24 1017.0 1016.0 0.0
12/12:00pm 27.0 20.4 5.9 26 11.0 SE 30 43 16 23 1017.0 1016.0 0.0
12/11:30am 26.1 19.7 5.1 26 10.8 SE 28 35 15 19 1017.1 1016.1 0.0
12/11:00am 25.1 18.1 5.8 29 10.0 SE 32 43 17 23 1017.1 1016.1 0.0
12/10:30am 24.5 17.8 5.8 30 9.6 SE 30 43 16 23 1017.2 1016.2 0.0
12/10:00am 23.4 15.8 5.8 32 9.0 SE 35 46 19 25 1017.1 1016.1 0.0
12/09:30am 22.5 15.3 5.9 34 8.5 SE 33 46 18 25 1017.0 1016.0 0.0
12/09:00am 21.9 14.4 6.2 36 8.0 SSE 35 50 19 27 1016.9 1015.9 0.0
12/08:30am 20.6 12.8 6.5 40 7.2 SSE 37 48 20 26 1016.7 1015.7 0.0
12/08:00am 19.9 11.7 6.6 42 6.7 SSE 39 50 21 27 1016.2 1015.2 0.0
12/07:30am 19.3 12.0 7.1 45 6.2 SSE 35 50 19 27 1015.9 1014.8 0.0
12/07:00am 19.2 12.2 7.0 45 6.2 SSE 33 43 18 23 1015.5 1014.4 0.0
12/06:30am 19.4 12.0 6.8 44 6.4 SSE 35 46 19 25 1015.2 1014.1 0.0
12/06:00am 20.1 13.2 6.5 41 6.9 S 32 43 17 23 1014.8 1013.8 0.0
12/05:30am 20.6 13.1 6.2 39 7.3 SSE 35 46 19 25 1014.6 1013.6 0.0
12/05:00am 21.2 13.8 5.1 35 8.0 S 33 44 18 24 1014.3 1013.3 0.0
12/04:30am 21.6 14.3 2.3 28 9.1 SSE 30 41 16 22 1014.2 1013.2 0.0
12/04:00am 22.2 15.1 1.3 25 9.7 SSE 28 37 15 20 1014.0 1013.0 0.0
12/03:30am 22.7 15.9 0.5 23 10.2 SSE 26 35 14 19 1014.0 1013.0 0.0
12/03:00am 23.2 16.6 -0.3 21 10.7 SSE 24 32 13 17 1014.1 1013.1 0.0
12/02:30am 23.7 17.0 -1.3 19 11.2 SSE 24 33 13 18 1014.3 1013.3 0.0
12/02:00am 24.1 17.7 -1.7 18 11.5 SSE 22 32 12 17 1014.5 1013.5 0.0
12/01:30am 24.4 18.3 -2.2 17 11.8 SSE 20 28 11 15 1014.7 1013.7 0.0
12/01:00am 25.0 18.9 -2.5 16 12.2 SSE 20 30 11 16 1014.7 1013.7 0.0
12/12:30am 25.4 19.3 -2.2 16 12.3 SSE 20 24 11 13 1015.2 1014.1 0.0
12/12:00am 26.3 19.8 -2.4 15 12.9 SSE 22 28 12 15 1015.1 1014.0 0.0
 
Date/Time
EDT
Temp
°C
App
Temp
°C
Dew
Point
°C
Rel
Hum
%
Delta-T
°C
Wind Press
QNH
hPa
Press
MSL
hPa
Rain since
9am
mm
Dir  Spd
km/h
Gust
km/h
Spd
kts
Gust
kts
11/11:30pm 26.9 20.4 -2.8 14 13.3 SSE 22 32 12 17 1015.2 1014.1 0.0
11/11:00pm 27.7 20.9 -2.2 14 13.6 SSE 24 33 13 18 1015.1 1014.0 0.0
11/10:30pm 28.3 21.8 -2.7 13 14.1 SSE 22 32 12 17 1014.8 1013.8 0.0
11/10:00pm 29.3 22.5 -1.9 13 14.5 SSE 24 30 13 16 1014.4 1013.4 0.0
11/09:30pm 30.1 23.2 -2.4 12 15.0 SSE 24 32 13 17 1014.2 1013.2 0.0
11/09:00pm 30.8 24.2 -3.0 11 15.5 SSE 22 28 12 15 1013.9 1012.9 0.0
11/08:30pm 31.6 25.0 -3.7 10 16.1 SSE 22 28 12 15 1013.6 1012.6 0.0
11/08:00pm 32.8 26.1 -4.2 9 16.9 SSE 22 30 12 16 1013.3 1012.3 0.0
11/07:30pm 33.5 26.5 -3.7 9 17.2 S 24 33 13 18 1013.0 1012.0 0.0
11/07:00pm 34.2 28.8 -1.7 10 17.3 SSE 17 26 9 14 1012.6 1011.6 0.0
11/06:30pm 34.2 28.8 -1.7 10 17.3 S 17 30 9 16 1012.4 1011.4 0.0
11/06:00pm 34.7 28.7 -1.4 10 17.5 SSE 20 30 11 16 1012.3 1011.3 0.0
11/05:30pm 34.5 29.8 -1.5 10 17.4 SSW 13 20 7 11 1012.6 1011.6 0.0
11/05:00pm 34.0 28.3 -0.6 11 16.9 SSW 19 35 10 19 1012.9 1011.9 0.0
11/04:30pm 33.8 29.6 -0.7 11 16.8 SSW 11 22 6 12 1013.1 1012.1 0.0
11/04:00pm 34.8 29.6 0.0 11 17.3 S 17 28 9 15 1013.4 1012.4 0.0
11/03:30pm 33.6 28.4 0.3 12 16.5 SSW 17 30 9 16 1013.8 1012.8 0.0
11/03:00pm 33.7 28.2 0.4 12 16.5 S 19 30 10 16 1014.0 1013.0 0.0
11/02:30pm 33.1 26.5 -0.1 12 16.3 S 24 32 13 17 1014.4 1013.4 0.0
11/02:00pm 33.5 27.9 0.2 12 16.5 SSE 19 33 10 18 1014.6 1013.6 0.0
11/01:30pm 32.0 25.5 0.2 13 15.6 SE 24 33 13 18 1014.7 1013.7 0.0
11/01:00pm 31.8 26.0 0.0 13 15.5 SSE 20 32 11 17 1015.1 1014.0 0.0
11/12:30pm 30.9 25.3 1.3 15 14.7 SE 20 30 11 16 1015.3 1014.2 0.0
11/12:00pm 29.6 24.2 1.1 16 13.9 SE 19 24 10 13 1015.6 1014.5 0.0
11/11:30am 29.1 22.9 2.4 18 13.3 ESE 24 35 13 19 1015.6 1014.5 0.0
11/11:00am 28.2 21.5 1.7 18 13.0 SE 26 39 14 21 1015.6 1014.5 0.0
11/10:30am 27.5 20.5 1.8 19 12.6 SE 28 37 15 20 1015.6 1014.5 0.0
11/10:00am 26.3 19.4 2.3 21 11.7 SE 28 37 15 20 1015.7 1014.6 0.0
11/09:30am 25.7 18.7 1.8 21 11.5 SE 28 35 15 19 1015.7 1014.6 0.0
11/09:00am 24.5 17.5 2.0 23 10.8 SE 28 35 15 19 1015.6 1014.5 0.0
11/08:30am 24.2 16.9 2.4 24 10.5 SSE 30 43 16 23 1015.3 1014.2 0.0
11/08:00am 23.6 16.6 1.9 24 10.3 SE 28 39 15 21 1014.9 1013.9 0.0

Other formats

Comma delimited format used in spreadsheet applications
http://www.bom.gov.au/fwo/IDN60801/IDN60801.94686.axf

JavaScript Object Notation format (JSON) in row-major order
http://www.bom.gov.au/fwo/IDN60801/IDN60801.94686.json

Data quality

Most of these data are generated automatically and are frequently updated. Quality checks on data are not normally performed. It is possible for incorrect values to appear. Refer to information at About Latest Weather Observations and please check the disclaimer before using these data.